Angeles - Pampanga, Philippines

4:13 AM PHT on August 23, 2014 (GMT +0800)
Clark International | Change Station
CLOSE
Current Station
Airport
Location: Angeles / Pampanga,
Elevation: 509 ft
Nearby Weather Stations

Elev 509 ft 15.19 °N, 120.56 °E | Updated 13 minutes ago

Mostly Cloudy
Mostly Cloudy
77 °F
Feels Like 77 °F
N
1
Wind Variable Wind from NNE

Today
High -- | Low -- °F
--% Chance of Precip.
Yesterday
High -- | Low -- °F
Precip. -- in
5:44 AM 6:16 PM
Waning Crescent, 7% visible
Pressure 29.83 in
Visibility 6.2 miles
Clouds Scattered Clouds 4200 ft
Mostly Cloudy 30000 ft
Dew Point 75 °F
Humidity 94%
Rainfall 0.00 in
Snow Depth Not available.
UV 0 out of 12
Pollen Not available.
Air Quality Not available.
Flu Activity Not available.
METAR RPLC 222000Z 02001KT 9999 SCT042 BKN300 25/24 Q1010 A2983 RMK NOSIG

More Conditions Fewer Conditions

Pressure 29.83 in
Visibility 6.2 miles
Clouds Scattered Clouds 4200 ft
Mostly Cloudy 30000 ft
Dew Point 75 °F
Humidity 94%
Rainfall 0.00 in
Snow Depth Not available.
UV 0 out of 12
Pollen Not available.
Air Quality Not available.
Flu Activity Not available.
METAR RPLC 222000Z 02001KT 9999 SCT042 BKN300 25/24 Q1010 A2983 RMK NOSIG

More Conditions Fewer Conditions

10-Day Weather Forecast

Almanac

Astronomy

Aug. 23, 2014 Rise Set
Actual Time 5:44 AM PHT 6:16 PM PHT
Civil Twilight 5:22 AM PHT 6:38 PM PHT
Nautical Twilight 4:56 AM PHT 7:04 PM PHT
Astronomical Twilight 4:30 AM PHT 7:29 PM PHT
Moon 3:38 AM PHT (8/23) 4:34 PM PHT (8/23)
Length of Visible Light 13h 16m
Length of Day
12h 32m
Tomorrow will be 0m 47s shorter.
Waning Crescent, 7% of the Moon is Illuminated
Aug 22
Waning Crescent
Aug 25
New
Sep 2
First Quarter
Sep 8
Full
Sep 15
Last Quarter

Yesterday's Extremes

Country Highs Country Lows

Community

WunderPhotos

Upload Photos

1,746,239 photos uploaded!

Nearby

Snow Depth

Not available.

Earthquake Activity

City Distance Mag. Time & Date
No recent earthquake activity has been reported nearby.
Minimum magnitude displayed is 2.5.

Coastal Water Temperatures

Place Temperature
No Stations Reporting

Nearby Weather Stations